Time;durP1;ratioP1;P1;durP2;ratioP2;P2;SDS_P1;SDS_P2;PMS_P1;PMS_P2;Temp;Humidity;BMP_temperature;BMP_pressure;BME280_temperature;BME280_humidity;BME280_pressure;Samples;Min_cycle;Max_cycle;Signal;HPM_P1;HPM_P2
2022/04/04 00:00:14;;;;;;;29.20;14.70;;;;;;;2.60;53.31;99125.04;233536;1216;139373;-58
2022/04/04 00:05:38;;;;;;;22.60;13.70;;;;;;;2.60;53.26;99127.66;233400;1216;138775;-59
2022/04/04 00:10:41;;;;;;;24.10;14.80;;;;;;;2.62;53.29;99122.73;233393;1217;138202;-59
2022/04/04 00:15:44;;;;;;;24.00;14.10;;;;;;;2.66;53.08;99124.86;233316;1216;139121;-59
2022/04/04 00:20:49;;;;;;;24.70;13.10;;;;;;;2.66;53.13;99123.99;233349;1217;138939;-59
2022/04/04 00:25:52;;;;;;;23.50;12.60;;;;;;;2.67;53.07;99120.48;233384;1216;139263;-59
2022/04/04 00:30:55;;;;;;;23.60;12.20;;;;;;;2.64;52.85;99123.00;233475;1217;138903;-59
2022/04/04 00:35:59;;;;;;;19.50;11.10;;;;;;;2.61;52.83;99124.48;233448;1217;138989;-59
2022/04/04 00:41:07;;;;;;;21.40;11.10;;;;;;;2.58;52.70;99128.42;233362;1215;138367;-59
2022/04/04 00:46:11;;;;;;;20.00;10.90;;;;;;;2.52;52.63;99121.41;233453;1216;138908;-59
2022/04/04 00:51:14;;;;;;;21.00;10.40;;;;;;;2.48;52.84;99119.07;233244;1217;140635;-57
2022/04/04 00:56:17;;;;;;;20.50;10.40;;;;;;;2.46;52.71;99119.48;233273;1217;141084;-58
2022/04/04 01:01:23;;;;;;;18.60;10.30;;;;;;;2.42;52.78;99112.42;233007;1216;138146;-59
2022/04/04 01:06:27;;;;;;;19.10;9.80;;;;;;;2.38;52.75;99112.52;233217;1217;138775;-57
2022/04/04 01:11:31;;;;;;;16.90;8.80;;;;;;;2.41;52.78;99112.27;233271;1216;138047;-58
2022/04/04 01:16:34;;;;;;;19.10;8.90;;;;;;;2.41;52.76;99114.55;233330;1217;138661;-58
2022/04/04 01:21:37;;;;;;;15.30;9.10;;;;;;;2.41;52.69;99112.63;233289;1217;138838;-59
2022/04/04 01:26:46;;;;;;;16.40;8.60;;;;;;;2.43;52.67;99104.69;233382;1217;138600;-57
2022/04/04 01:31:50;;;;;;;16.50;8.40;;;;;;;2.45;52.59;99100.25;233410;1217;138769;-58
2022/04/04 01:36:53;;;;;;;12.70;8.00;;;;;;;2.46;52.55;99097.61;233355;1217;138801;-57
2022/04/04 01:41:56;;;;;;;16.60;8.60;;;;;;;2.42;52.56;99093.31;233346;1217;139012;-57
2022/04/04 01:46:59;;;;;;;15.30;8.70;;;;;;;2.39;52.61;99094.14;233420;1217;138552;-58
2022/04/04 01:52:02;;;;;;;15.50;8.20;;;;;;;2.38;52.49;99083.27;233629;1217;138720;-57
2022/04/04 01:57:05;;;;;;;16.60;8.20;;;;;;;2.40;52.63;99078.67;233419;1216;138823;-58
2022/04/04 02:02:08;;;;;;;14.60;7.90;;;;;;;2.46;52.63;99074.66;233476;1216;138844;-59
2022/04/04 02:07:11;;;;;;;14.70;8.10;;;;;;;2.50;52.74;99075.92;233271;1217;138392;-60
2022/04/04 02:12:14;;;;;;;13.20;7.80;;;;;;;2.54;52.69;99070.21;233514;1216;138741;-60
2022/04/04 02:17:17;;;;;;;16.90;8.70;;;;;;;2.49;52.57;99069.13;233523;1217;141560;-59
2022/04/04 02:22:20;;;;;;;14.10;8.10;;;;;;;2.54;52.64;99063.04;233606;1217;139087;-59
2022/04/04 02:27:23;;;;;;;16.30;7.70;;;;;;;2.52;52.50;99058.73;233290;1217;140994;-57
2022/04/04 02:32:26;;;;;;;12.80;7.50;;;;;;;2.45;52.43;99063.31;233413;1217;138840;-59
2022/04/04 02:37:30;;;;;;;12.20;7.20;;;;;;;2.39;52.28;99061.02;233199;1217;138300;-59
2022/04/04 02:42:32;;;;;;;15.80;7.90;;;;;;;2.36;52.48;99054.81;233478;1217;138995;-58
2022/04/04 02:47:37;;;;;;;15.60;8.30;;;;;;;2.34;52.47;99050.14;233439;1217;138517;-59
2022/04/04 02:52:40;;;;;;;13.00;8.00;;;;;;;2.32;52.47;99047.39;233486;1217;139427;-59
2022/04/04 02:57:43;;;;;;;18.70;8.40;;;;;;;2.33;52.46;99044.02;233252;1217;138662;-59
2022/04/04 03:02:47;;;;;;;12.90;7.00;;;;;;;2.31;52.58;99043.91;233283;1217;138862;-60
2022/04/04 03:07:51;;;;;;;15.50;7.70;;;;;;;2.25;52.47;99039.89;233483;1217;139256;-59
2022/04/04 03:12:54;;;;;;;14.30;7.80;;;;;;;2.21;52.46;99042.81;233403;1217;139022;-57
2022/04/04 03:17:58;;;;;;;15.80;7.70;;;;;;;2.18;52.43;99043.07;233351;1217;139024;-59
2022/04/04 03:23:02;;;;;;;12.90;7.60;;;;;;;2.10;52.53;99039.60;233447;1217;138644;-62
2022/04/04 03:28:05;;;;;;;61.00;41.00;;;;;;;2.12;52.77;99046.20;233645;1216;138436;-59
2022/04/04 03:33:08;;;;;;;14.00;7.80;;;;;;;2.25;53.04;99046.55;233411;1217;139907;-59
2022/04/04 03:38:11;;;;;;;14.00;7.30;;;;;;;2.30;52.66;99045.52;233262;1217;138553;-58
2022/04/04 03:43:14;;;;;;;93.00;68.40;;;;;;;2.30;52.62;99044.11;233301;1217;139534;-58
2022/04/04 03:48:18;;;;;;;17.40;10.20;;;;;;;2.37;52.79;99039.73;233399;1217;139351;-59
2022/04/04 03:53:22;;;;;;;17.70;8.10;;;;;;;2.38;52.59;99040.23;233250;1217;139826;-58
2022/04/04 03:58:25;;;;;;;15.20;7.60;;;;;;;2.27;52.40;99042.63;233603;1217;138662;-57
2022/04/04 04:03:28;;;;;;;13.20;6.90;;;;;;;2.20;52.29;99036.36;233336;1217;138339;-57
2022/04/04 04:08:31;;;;;;;16.10;8.90;;;;;;;2.18;52.73;99033.61;233326;1215;139312;-58
2022/04/04 04:13:34;;;;;;;15.00;7.60;;;;;;;2.26;52.62;99026.58;233306;1216;138718;-58
2022/04/04 04:18:37;;;;;;;13.70;6.50;;;;;;;2.24;52.25;99027.49;233421;1217;139303;-56
2022/04/04 04:23:42;;;;;;;12.20;6.50;;;;;;;2.12;52.17;99024.66;233373;1217;138498;-55
2022/04/04 04:28:47;;;;;;;10.40;6.90;;;;;;;1.98;52.01;99028.56;233566;1215;139682;-57
2022/04/04 04:33:50;;;;;;;248.60;154.50;;;;;;;1.90;52.32;99027.76;233414;1217;138104;-57
2022/04/04 04:38:53;;;;;;;20.50;9.30;;;;;;;1.95;52.79;99033.90;233536;1217;139139;-57
2022/04/04 04:43:56;;;;;;;12.90;7.10;;;;;;;1.93;52.51;99034.48;233574;1217;138809;-58
2022/04/04 04:48:59;;;;;;;15.00;7.40;;;;;;;1.87;52.29;99035.86;233486;1217;138466;-58
2022/04/04 04:54:02;;;;;;;11.60;6.70;;;;;;;1.88;52.46;99041.27;233607;1216;139013;-58
2022/04/04 04:59:05;;;;;;;13.60;6.60;;;;;;;1.92;52.41;99037.64;233378;1217;138330;-58
2022/04/04 05:04:08;;;;;;;11.60;6.00;;;;;;;1.91;52.40;99035.94;233425;1217;138733;-57
2022/04/04 05:09:11;;;;;;;14.90;6.20;;;;;;;1.89;52.24;99036.67;233324;1217;138914;-58
2022/04/04 05:14:17;;;;;;;11.20;6.00;;;;;;;1.91;52.34;99042.60;233492;1217;138921;-58
2022/04/04 05:19:22;;;;;;;13.70;6.50;;;;;;;1.94;52.26;99039.72;233415;1217;138305;-56
2022/04/04 05:24:25;;;;;;;13.10;6.00;;;;;;;1.91;52.18;99038.91;233332;1217;139674;-58
2022/04/04 05:29:28;;;;;;;10.90;6.30;;;;;;;1.92;52.24;99036.60;233342;1217;138603;-57
2022/04/04 05:34:31;;;;;;;11.20;5.80;;;;;;;1.96;52.27;99036.52;233368;1217;138592;-57
2022/04/04 05:39:34;;;;;;;10.70;5.90;;;;;;;1.99;52.17;99034.33;233411;1217;138425;-57
2022/04/04 05:44:37;;;;;;;11.10;5.60;;;;;;;2.00;51.92;99033.59;233360;1217;138601;-58
2022/04/04 05:49:41;;;;;;;11.00;5.80;;;;;;;2.06;51.98;99037.46;233357;1217;138571;-59
2022/04/04 05:54:54;;;;;;;13.50;6.40;;;;;;;2.14;51.90;99041.08;233406;1217;139372;-58
2022/04/04 05:59:57;;;;;;;15.70;6.90;;;;;;;2.22;51.92;99041.02;233496;1217;138031;-57
2022/04/04 06:05:00;;;;;;;10.50;5.50;;;;;;;2.29;51.65;99042.23;233531;1215;139130;-56
2022/04/04 06:10:05;;;;;;;10.10;6.10;;;;;;;2.26;51.48;99038.45;233466;1217;138379;-57
2022/04/04 06:15:10;;;;;;;;;;;;;;;2.36;51.62;99034.67;233350;1217;138631;-56
2022/04/04 06:20:13;;;;;;;10.50;6.60;;;;;;;2.48;51.50;99038.36;233437;1215;124568;-58
2022/04/04 06:25:16;;;;;;;13.70;5.90;;;;;;;2.50;51.34;99036.36;233315;1217;140551;-59
2022/04/04 06:30:20;;;;;;;11.70;6.00;;;;;;;2.56;51.07;99036.91;233358;1217;138692;-58
2022/04/04 06:35:25;;;;;;;11.80;5.60;;;;;;;2.65;50.94;99035.05;233375;1217;138915;-58
2022/04/04 06:40:30;;;;;;;10.20;6.40;;;;;;;2.71;50.75;99032.41;233466;1217;138425;-58
2022/04/04 06:45:34;;;;;;;10.20;5.90;;;;;;;2.73;50.59;99031.98;233338;1217;138841;-58
2022/04/04 06:50:37;;;;;;;13.10;6.30;;;;;;;2.71;50.44;99029.63;233456;1217;138869;-57
2022/04/04 06:55:42;;;;;;;10.00;5.70;;;;;;;2.74;50.47;99027.77;233287;1217;138268;-57
2022/04/04 07:00:45;;;;;;;9.20;6.00;;;;;;;2.84;50.56;99026.08;233308;1217;139397;-58
2022/04/04 07:05:48;;;;;;;13.20;5.80;;;;;;;2.98;50.66;99021.77;233439;1216;138312;-59
2022/04/04 07:10:51;;;;;;;8.00;5.70;;;;;;;3.06;50.48;99027.61;233463;1217;138387;-59
2022/04/04 07:15:54;;;;;;;9.40;6.10;;;;;;;3.13;50.33;99025.31;233249;1217;138473;-58
2022/04/04 07:20:57;;;;;;;9.30;6.20;;;;;;;3.24;50.16;99027.59;233406;1216;138431;-57
2022/04/04 07:26:00;;;;;;;11.50;6.10;;;;;;;3.28;49.98;99019.75;233453;1217;138631;-63
2022/04/04 07:31:06;;;;;;;10.70;6.30;;;;;;;3.32;49.92;99019.25;233357;1217;138916;-61
2022/04/04 07:36:10;;;;;;;10.70;6.00;;;;;;;3.39;49.98;99010.11;233289;1217;140037;-57
2022/04/04 07:41:13;;;;;;;9.20;6.10;;;;;;;3.48;49.92;99006.64;233258;1217;138680;-56
2022/04/04 07:46:17;;;;;;;10.40;5.90;;;;;;;3.59;49.92;99001.86;233426;1217;139805;-59
2022/04/04 07:51:20;;;;;;;12.20;6.90;;;;;;;3.70;49.86;98996.59;233418;1216;139745;-59
2022/04/04 07:56:23;;;;;;;20.30;10.20;;;;;;;3.86;50.18;98990.40;233078;1217;138647;-59
2022/04/04 08:01:26;;;;;;;14.50;6.70;;;;;;;4.07;50.18;98984.72;233429;1217;140688;-57
2022/04/04 08:06:30;;;;;;;10.50;7.10;;;;;;;4.16;49.54;98987.19;233300;1217;139037;-59
2022/04/04 08:11:33;;;;;;;11.60;7.00;;;;;;;4.20;49.44;98988.48;233379;1216;139550;-58
2022/04/04 08:16:37;;;;;;;14.30;7.30;;;;;;;4.30;49.36;98992.15;233448;1217;138486;-57
2022/04/04 08:21:44;;;;;;;10.20;7.40;;;;;;;4.33;49.20;98980.10;233261;1217;139706;-58
2022/04/04 08:26:47;;;;;;;14.40;7.10;;;;;;;4.40;49.21;98979.12;233287;1217;138855;-58
2022/04/04 08:31:51;;;;;;;11.80;7.20;;;;;;;4.42;49.20;98977.64;233315;1217;138592;-58
2022/04/04 08:36:54;;;;;;;12.50;7.80;;;;;;;4.51;49.49;98971.50;233491;1217;138364;-57
2022/04/04 08:41:58;;;;;;;12.90;7.30;;;;;;;4.62;49.56;98967.35;233439;1217;138488;-57
2022/04/04 08:47:02;;;;;;;13.00;7.00;;;;;;;4.70;49.62;98962.13;233238;1217;139182;-58
2022/04/04 08:52:12;;;;;;;13.00;7.00;;;;;;;4.81;49.43;98955.58;233476;1217;138521;-58
2022/04/04 08:57:15;;;;;;;11.90;7.20;;;;;;;4.89;49.56;98953.83;233454;1217;138900;-57
2022/04/04 09:02:18;;;;;;;9.60;6.30;;;;;;;4.97;49.36;98954.18;233388;1217;138700;-58
2022/04/04 09:07:21;;;;;;;12.70;7.50;;;;;;;5.06;49.52;98955.24;233489;1216;138812;-58
2022/04/04 09:12:26;;;;;;;9.50;6.90;;;;;;;5.17;49.34;98951.45;233453;1217;138806;-58
2022/04/04 09:17:32;;;;;;;10.70;7.00;;;;;;;5.17;49.29;98943.53;233455;1217;139307;-58
2022/04/04 09:22:50;;;;;;;10.00;6.80;;;;;;;5.26;49.49;98938.75;233472;1217;138562;-58
2022/04/04 09:27:54;;;;;;;9.50;6.10;;;;;;;5.40;49.64;98927.27;233352;1217;138189;-58
2022/04/04 09:32:58;;;;;;;7.90;5.70;;;;;;;5.54;49.46;98926.30;233485;1217;138586;-58
2022/04/04 09:38:12;;;;;;;9.00;6.30;;;;;;;5.60;49.37;98914.45;233559;1217;138224;-59
2022/04/04 09:43:16;;;;;;;9.60;6.10;;;;;;;5.57;49.22;98916.66;233332;1216;138485;-59
2022/04/04 09:48:19;;;;;;;10.10;6.50;;;;;;;5.55;49.40;98902.34;233399;1217;138688;-59
2022/04/04 09:53:29;;;;;;;9.30;6.80;;;;;;;5.67;49.28;98889.50;233448;1217;139213;-59
2022/04/04 09:58:33;;;;;;;10.50;6.70;;;;;;;5.85;49.57;98882.34;233559;1217;138386;-59
2022/04/04 10:03:38;;;;;;;11.60;7.00;;;;;;;5.98;49.10;98873.34;233553;1217;138198;-59
2022/04/04 10:08:43;;;;;;;12.20;6.70;;;;;;;6.10;49.25;98865.05;233362;1217;138525;-58
2022/04/04 10:13:46;;;;;;;13.20;6.30;;;;;;;6.14;49.04;98854.77;233465;1217;138218;-59
2022/04/04 10:18:57;;;;;;;8.80;6.80;;;;;;;6.20;48.74;98841.13;233312;1217;139786;-58
2022/04/04 10:24:02;;;;;;;10.50;7.20;;;;;;;6.42;49.06;98832.50;233572;1217;139522;-60
2022/04/04 10:29:09;;;;;;;12.90;5.90;;;;;;;6.68;48.98;98815.89;233513;1217;138461;-58
2022/04/04 10:34:15;;;;;;;9.70;5.70;;;;;;;6.92;49.03;98813.24;233462;1217;137867;-59
2022/04/04 10:39:30;;;;;;;;;;;;;;;7.22;48.70;98800.41;233372;1217;138135;-58
2022/04/04 10:44:46;;;;;;;8.40;5.20;;;;;;;7.32;47.85;98797.24;233489;1217;125201;-59
2022/04/04 10:49:50;;;;;;;9.80;5.80;;;;;;;7.50;48.09;98783.60;233449;1216;138900;-59
2022/04/04 10:54:53;;;;;;;10.70;5.80;;;;;;;7.65;47.40;98781.39;233351;1215;138126;-58
2022/04/04 10:59:57;;;;;;;7.50;5.60;;;;;;;7.65;47.19;98775.88;233319;1217;138820;-59
2022/04/04 11:10:40;;;;;;;13.00;6.00;;;;;;;7.76;47.19;98755.70;233433;1217;138481;-59
2022/04/04 11:15:49;;;;;;;8.30;5.60;;;;;;;7.64;46.68;98759.36;233355;1217;139265;-59
2022/04/04 11:20:59;;;;;;;10.00;5.80;;;;;;;7.61;46.83;98741.54;233387;1217;138551;-60
2022/04/04 11:26:08;;;;;;;9.70;5.60;;;;;;;7.67;46.76;98742.41;233211;1217;140308;-59
2022/04/04 11:31:12;;;;;;;7.70;5.90;;;;;;;7.69;46.71;98733.30;233357;1217;139775;-59
2022/04/04 11:36:32;;;;;;;8.10;6.10;;;;;;;7.95;46.87;98734.16;233234;1217;138980;-59
2022/04/04 11:41:46;;;;;;;8.00;5.90;;;;;;;7.98;46.32;98721.27;233379;1217;139085;-60
2022/04/04 11:47:06;;;;;;;8.90;6.00;;;;;;;7.93;46.22;98708.51;233388;1217;138696;-59
2022/04/04 11:52:14;;;;;;;8.20;5.70;;;;;;;7.94;46.11;98712.17;233450;1217;138611;-59
2022/04/04 11:57:18;;;;;;;8.20;5.80;;;;;;;7.80;45.89;98696.48;233470;1217;138798;-59
2022/04/04 12:02:23;;;;;;;8.60;5.70;;;;;;;7.95;46.27;98691.42;233363;1217;138874;-58
2022/04/04 12:07:31;;;;;;;6.70;5.20;;;;;;;8.09;46.09;98675.92;233464;1217;138991;-59
2022/04/04 12:12:34;;;;;;;11.30;6.50;;;;;;;8.13;45.79;98674.29;233386;1217;138343;-59
2022/04/04 12:17:37;;;;;;;10.00;5.60;;;;;;;8.11;45.74;98671.95;233331;1217;138836;-59
2022/04/04 12:28:03;;;;;;;9.10;5.70;;;;;;;8.19;45.24;98656.45;233390;1217;138400;-58
2022/04/04 12:33:14;;;;;;;8.10;6.10;;;;;;;8.28;45.27;98637.02;233422;1217;138589;-59
2022/04/04 12:38:29;;;;;;;7.60;5.00;;;;;;;8.34;45.14;98632.27;233366;1217;138394;-59
2022/04/04 12:43:32;;;;;;;6.10;5.20;;;;;;;8.26;44.63;98633.91;233283;1217;138873;-59
2022/04/04 12:48:40;;;;;;;12.70;5.30;;;;;;;8.19;44.62;98618.80;233270;1217;138569;-59
2022/04/04 12:53:50;;;;;;;21.20;10.50;;;;;;;8.29;44.97;98608.14;233197;1217;138601;-58
2022/04/04 12:59:08;;;;;;;9.00;5.00;;;;;;;8.36;44.66;98598.88;233385;1217;138847;-59
2022/04/04 13:04:21;;;;;;;7.90;4.90;;;;;;;8.51;44.50;98591.84;233298;1217;138418;-59
2022/04/04 13:09:25;;;;;;;6.30;4.60;;;;;;;8.99;44.51;98579.68;233430;1217;138416;-58
2022/04/04 13:14:47;;;;;;;6.20;4.70;;;;;;;9.32;44.15;98575.08;233370;1217;138992;-59
2022/04/04 13:19:50;;;;;;;8.40;5.10;;;;;;;9.68;44.16;98569.58;233366;1217;139539;-58
2022/04/04 13:24:53;;;;;;;8.00;5.00;;;;;;;9.99;43.58;98562.17;233255;1217;138332;-58
2022/04/04 13:29:56;;;;;;;6.40;4.50;;;;;;;10.02;42.92;98548.15;233387;1216;138950;-59
2022/04/04 13:34:59;;;;;;;8.10;4.30;;;;;;;10.14;42.85;98534.44;233443;1217;139423;-59
2022/04/04 13:40:05;;;;;;;7.10;4.40;;;;;;;10.41;42.46;98528.29;233420;1215;139053;-59
2022/04/04 13:45:14;;;;;;;5.90;4.10;;;;;;;10.52;42.24;98511.23;233266;1217;138535;-57
2022/04/04 13:50:17;;;;;;;10.10;3.90;;;;;;;10.32;41.44;98509.58;233394;1215;138906;-58
2022/04/04 13:55:20;;;;;;;6.80;3.90;;;;;;;10.31;41.32;98494.23;233374;1217;139843;-58
2022/04/04 14:00:24;;;;;;;7.00;4.20;;;;;;;10.07;41.04;98483.30;233340;1217;138714;-58
2022/04/04 14:05:28;;;;;;;4.90;3.70;;;;;;;9.83;40.84;98477.67;233117;1217;138681;-60
2022/04/04 14:11:12;;;;;;;5.10;3.80;;;;;;;9.45;40.78;98480.44;233162;1217;139711;-58
2022/04/04 14:16:17;;;;;;;5.50;3.20;;;;;;;9.15;40.64;98472.67;233223;1217;138540;-58
2022/04/04 14:21:21;;;;;;;6.60;3.30;;;;;;;8.96;40.65;98457.61;233258;1217;138377;-59
2022/04/04 14:26:25;;;;;;;4.50;3.40;;;;;;;8.85;40.45;98456.04;233345;1217;138711;-56
2022/04/04 14:31:29;;;;;;;5.10;3.20;;;;;;;8.69;40.25;98446.78;233311;1217;139449;-57
2022/04/04 14:36:32;;;;;;;7.40;3.70;;;;;;;8.56;40.31;98442.67;233153;1216;138592;-57
2022/04/04 14:41:35;;;;;;;5.90;4.00;;;;;;;8.49;40.24;98442.23;233308;1217;140602;-56
2022/04/04 14:46:38;;;;;;;6.20;3.60;;;;;;;8.39;40.06;98426.56;233400;1217;138505;-59
2022/04/04 14:51:42;;;;;;;7.00;3.80;;;;;;;8.35;40.22;98417.63;233281;1217;138343;-58
2022/04/04 14:56:46;;;;;;;5.50;3.70;;;;;;;8.29;39.92;98418.66;233311;1217;138288;-58
2022/04/04 15:01:49;;;;;;;5.40;3.80;;;;;;;8.19;39.67;98406.62;233221;1216;137932;-58
2022/04/04 15:06:52;;;;;;;7.70;4.00;;;;;;;8.04;39.96;98388.41;233216;1217;139002;-57
2022/04/04 15:11:55;;;;;;;6.80;3.80;;;;;;;7.98;39.87;98378.77;233322;1217;138426;-58
2022/04/04 15:16:58;;;;;;;6.50;4.30;;;;;;;7.96;39.91;98371.13;233504;1217;138061;-58
2022/04/04 15:22:02;;;;;;;6.30;4.00;;;;;;;7.93;39.90;98355.73;233449;1217;138168;-59
2022/04/04 15:27:06;;;;;;;7.20;4.20;;;;;;;7.85;39.99;98344.05;233159;1217;138880;-60
2022/04/04 15:32:09;;;;;;;5.80;3.80;;;;;;;7.83;39.92;98334.96;233354;1216;138380;-59
2022/04/04 15:37:17;;;;;;;153.50;87.20;;;;;;;7.80;40.04;98327.91;233282;1216;138680;-58
2022/04/04 15:42:20;;;;;;;11.40;5.10;;;;;;;7.78;39.71;98324.02;233260;1217;139269;-58
2022/04/04 15:47:23;;;;;;;6.40;4.30;;;;;;;7.72;39.67;98307.58;233316;1216;138646;-58
2022/04/04 15:52:26;;;;;;;6.60;4.30;;;;;;;7.65;39.63;98303.66;233249;1217;138596;-59
2022/04/04 15:57:29;;;;;;;6.20;4.00;;;;;;;7.62;39.58;98294.10;233176;1217;138522;-63
2022/04/04 16:02:33;;;;;;;6.80;3.90;;;;;;;7.62;39.62;98280.37;233419;1217;138358;-59
2022/04/04 16:07:36;;;;;;;9.50;4.50;;;;;;;7.63;39.88;98271.66;233260;1217;139083;-59
2022/04/04 16:12:39;;;;;;;5.30;4.10;;;;;;;7.68;39.60;98258.66;233231;1217;139674;-57
2022/04/04 16:17:42;;;;;;;7.60;5.20;;;;;;;7.71;39.41;98254.33;233194;1217;138892;-57
2022/04/04 16:22:45;;;;;;;8.10;5.40;;;;;;;8.05;41.83;98248.46;233363;1217;138901;-56
2022/04/04 16:27:49;;;;;;;9.60;5.00;;;;;;;8.34;40.39;98231.36;233006;1217;138831;-57
2022/04/04 16:32:52;;;;;;;6.80;4.60;;;;;;;8.22;39.85;98226.88;233191;1217;138664;-56
2022/04/04 16:37:56;;;;;;;8.00;4.10;;;;;;;8.00;39.60;98214.16;233300;1217;138402;-56
2022/04/04 16:42:59;;;;;;;7.80;4.70;;;;;;;7.80;39.65;98206.11;233381;1216;138846;-56
2022/04/04 16:48:02;;;;;;;7.00;3.80;;;;;;;7.64;39.68;98191.42;233337;1216;138946;-58
2022/04/04 16:53:08;;;;;;;6.10;4.10;;;;;;;7.47;39.39;98184.59;233382;1217;138820;-57
2022/04/04 16:58:12;;;;;;;6.90;4.00;;;;;;;7.32;39.82;98173.14;233290;1217;138469;-57
2022/04/04 17:03:18;;;;;;;9.00;4.00;;;;;;;7.21;40.03;98165.55;233497;1217;138447;-59
2022/04/04 17:08:24;;;;;;;9.10;4.50;;;;;;;7.13;40.09;98159.36;233251;1217;138773;-58
2022/04/04 17:13:28;;;;;;;9.60;4.50;;;;;;;7.06;40.09;98147.61;233247;1216;138171;-59
2022/04/04 17:18:31;;;;;;;5.90;4.60;;;;;;;6.98;40.06;98144.74;232953;1217;140390;-58
2022/04/04 17:23:40;;;;;;;9.60;4.10;;;;;;;6.92;40.15;98138.08;233218;1217;139187;-59
2022/04/04 17:28:44;;;;;;;6.20;4.10;;;;;;;6.87;40.53;98127.41;233370;1217;138418;-59
2022/04/04 17:33:50;;;;;;;6.20;4.50;;;;;;;6.84;40.55;98122.67;233160;1217;138243;-59
2022/04/04 17:38:56;;;;;;;9.10;4.50;;;;;;;6.81;40.59;98115.67;233065;1217;138343;-59
2022/04/04 17:44:02;;;;;;;11.00;5.10;;;;;;;6.76;40.94;98109.45;233317;1217;138747;-63
2022/04/04 17:49:06;;;;;;;6.80;4.90;;;;;;;6.72;40.79;98097.55;233258;1217;139515;-58
2022/04/04 17:54:16;;;;;;;9.30;4.90;;;;;;;6.66;41.07;98091.05;233316;1217;139244;-60
2022/04/04 17:59:22;;;;;;;8.60;5.30;;;;;;;6.61;40.88;98082.48;233130;1217;138541;-60
2022/04/04 18:04:25;;;;;;;9.10;4.90;;;;;;;6.58;40.87;98076.02;233472;1216;139322;-59
2022/04/04 18:09:28;;;;;;;9.00;5.30;;;;;;;6.52;41.12;98070.73;233027;1217;138301;-60
2022/04/04 18:14:31;;;;;;;9.70;5.50;;;;;;;6.47;41.35;98068.90;233165;1217;138263;-59
2022/04/04 18:19:34;;;;;;;8.10;5.70;;;;;;;6.48;41.20;98064.49;233203;1217;140231;-59
2022/04/04 18:24:37;;;;;;;15.30;8.20;;;;;;;6.44;41.52;98063.50;233235;1217;138361;-59
2022/04/04 18:29:40;;;;;;;16.60;8.50;;;;;;;6.40;41.41;98055.27;233145;1217;138588;-59
2022/04/04 18:34:44;;;;;;;12.40;6.80;;;;;;;6.32;41.63;98049.91;233485;1217;138643;-59
2022/04/04 18:39:50;;;;;;;12.10;7.20;;;;;;;6.25;41.76;98050.85;233253;1217;139780;-57
2022/04/04 18:44:53;;;;;;;48.80;36.40;;;;;;;6.19;41.39;98040.18;233346;1217;139225;-60
2022/04/04 18:49:57;;;;;;;14.60;8.20;;;;;;;6.20;41.89;98036.73;233394;1216;138512;-60
2022/04/04 18:55:00;;;;;;;10.50;7.20;;;;;;;6.19;41.73;98030.83;233140;1217;139642;-59
2022/04/04 19:00:08;;;;;;;14.10;7.60;;;;;;;6.10;41.81;98027.86;233426;1217;138743;-58
2022/04/04 19:05:13;;;;;;;12.70;7.20;;;;;;;6.06;41.62;98021.34;233319;1216;140083;-58
2022/04/04 19:10:16;;;;;;;11.70;7.00;;;;;;;6.02;41.86;98018.10;233226;1216;138989;-59
2022/04/04 19:15:19;;;;;;;12.10;7.10;;;;;;;5.97;41.87;98009.25;233343;1217;139394;-59
2022/04/04 19:20:22;;;;;;;12.10;7.30;;;;;;;5.94;41.90;98004.84;233301;1217;138796;-61
2022/04/04 19:25:26;;;;;;;35.70;23.40;;;;;;;6.02;42.52;98002.41;233287;1217;138165;-61
2022/04/04 19:30:30;;;;;;;13.90;8.40;;;;;;;6.12;42.63;97997.59;233323;1217;139120;-61
2022/04/04 19:35:35;;;;;;;13.50;7.60;;;;;;;6.10;42.20;97995.10;233232;1216;138722;-58
2022/04/04 19:40:38;;;;;;;17.40;7.50;;;;;;;6.03;42.09;97986.87;233317;1217;138969;-57
2022/04/04 19:45:42;;;;;;;14.10;7.40;;;;;;;6.00;42.03;97974.55;233150;1217;138464;-57
2022/04/04 19:50:45;;;;;;;15.00;6.70;;;;;;;6.00;42.11;97964.02;233271;1217;138777;-53
2022/04/04 19:55:49;;;;;;;12.00;7.20;;;;;;;6.02;42.59;97958.05;233308;1217;138952;-56
2022/04/04 20:00:52;;;;;;;11.20;6.80;;;;;;;6.04;42.59;97953.35;233512;1217;140410;-58
2022/04/04 20:05:58;;;;;;;11.90;7.40;;;;;;;6.07;42.52;97943.98;233325;1215;139908;-58
2022/04/04 20:11:02;;;;;;;11.70;7.00;;;;;;;6.11;42.77;97937.79;233448;1217;140698;-57
2022/04/04 20:16:06;;;;;;;11.30;7.10;;;;;;;6.14;42.80;97937.95;233362;1217;138821;-58
2022/04/04 20:21:11;;;;;;;13.20;7.60;;;;;;;6.16;42.57;97926.39;233216;1215;139744;-57
2022/04/04 20:26:14;;;;;;;12.10;7.30;;;;;;;6.14;42.83;97921.20;233189;1217;138682;-58
2022/04/04 20:31:17;;;;;;;12.80;7.20;;;;;;;6.13;42.72;97914.20;233221;1217;138856;-58
2022/04/04 20:36:20;;;;;;;12.00;7.10;;;;;;;6.13;43.18;97911.94;233302;1217;138465;-55
2022/04/04 20:41:24;;;;;;;9.70;7.10;;;;;;;6.14;43.44;97911.02;233292;1215;139285;-58
2022/04/04 20:46:27;;;;;;;17.00;8.80;;;;;;;6.14;43.97;97900.41;233410;1217;138210;-56
2022/04/04 20:51:31;;;;;;;14.10;7.60;;;;;;;6.16;43.59;97893.64;233329;1217;138945;-58
2022/04/04 20:56:36;;;;;;;12.10;6.90;;;;;;;6.17;43.89;97887.05;233368;1217;138977;-58
2022/04/04 21:01:39;;;;;;;10.80;6.70;;;;;;;6.16;44.22;97881.30;233475;1215;139064;-58
2022/04/04 21:06:42;;;;;;;11.50;7.20;;;;;;;6.16;44.38;97866.52;233317;1217;138638;-58
2022/04/04 21:11:46;;;;;;;9.30;6.80;;;;;;;6.13;44.62;97874.96;233235;1217;138603;-58
2022/04/04 21:16:53;;;;;;;12.40;7.70;;;;;;;6.09;44.50;97868.38;233418;1217;138249;-58
2022/04/04 21:21:56;;;;;;;9.70;7.10;;;;;;;6.09;45.12;97861.84;233332;1217;139933;-59
2022/04/04 21:27:00;;;;;;;11.00;7.50;;;;;;;6.12;45.29;97857.27;233367;1217;138719;-57
2022/04/04 21:32:03;;;;;;;11.30;7.70;;;;;;;6.14;45.18;97860.46;233383;1217;139037;-57
2022/04/04 21:37:06;;;;;;;11.00;7.70;;;;;;;6.14;45.77;97860.30;233343;1216;138744;-55
2022/04/04 21:42:09;;;;;;;13.60;8.30;;;;;;;6.15;45.64;97858.09;233337;1217;138865;-56
2022/04/04 21:47:14;;;;;;;9.30;7.70;;;;;;;6.16;45.60;97852.09;233221;1217;138753;-56
2022/04/04 21:52:17;;;;;;;10.00;6.80;;;;;;;6.17;46.21;97847.08;233291;1217;138737;-57
2022/04/04 21:57:20;;;;;;;9.60;6.80;;;;;;;6.22;46.21;97846.41;233242;1217;138303;-56
2022/04/04 22:02:23;;;;;;;8.20;6.20;;;;;;;6.26;46.10;97837.73;233270;1217;139349;-56
2022/04/04 22:07:26;;;;;;;9.40;6.80;;;;;;;6.26;46.30;97827.46;233173;1217;138706;-58
2022/04/04 22:12:29;;;;;;;8.70;6.20;;;;;;;6.26;46.56;97825.75;233226;1217;139006;-59
2022/04/04 22:17:33;;;;;;;10.70;7.70;;;;;;;6.23;46.89;97820.28;233268;1217;139538;-57
2022/04/04 22:22:37;;;;;;;9.70;7.00;;;;;;;6.21;46.87;97814.82;233419;1216;139084;-57
2022/04/04 22:27:40;;;;;;;9.10;7.00;;;;;;;6.20;46.98;97804.46;233365;1217;139416;-56
2022/04/04 22:32:46;;;;;;;10.40;7.30;;;;;;;6.21;47.24;97801.07;233363;1217;139614;-57
2022/04/04 22:37:49;;;;;;;;;;;;;;;6.18;47.67;97797.20;233410;1217;138915;-58
2022/04/04 22:42:52;;;;;;;11.00;7.40;;;;;;;6.14;47.51;97792.13;233450;1217;125876;-55
2022/04/04 22:47:55;;;;;;;14.40;9.60;;;;;;;6.14;47.78;97790.73;233361;1217;139045;-56
2022/04/04 22:52:58;;;;;;;11.10;8.40;;;;;;;6.14;47.71;97790.39;233504;1217;139095;-54
2022/04/04 22:58:02;;;;;;;10.50;8.50;;;;;;;6.11;48.16;97785.11;233422;1217;138949;-58
2022/04/04 23:03:05;;;;;;;10.70;8.30;;;;;;;6.10;48.21;97781.68;233453;1217;138602;-58
2022/04/04 23:08:08;;;;;;;10.50;8.20;;;;;;;6.07;48.53;97774.61;233447;1217;139139;-54
2022/04/04 23:13:11;;;;;;;10.10;8.10;;;;;;;6.06;48.49;97768.38;233597;1217;139087;-58
2022/04/04 23:18:14;;;;;;;13.60;8.40;;;;;;;6.04;48.68;97762.69;233386;1217;139079;-56
2022/04/04 23:23:17;;;;;;;10.90;7.20;;;;;;;6.02;48.66;97760.20;233492;1217;138692;-57
2022/04/04 23:28:20;;;;;;;10.00;8.40;;;;;;;6.00;48.97;97755.39;233393;1217;139083;-55
2022/04/04 23:33:23;;;;;;;12.70;8.70;;;;;;;5.99;49.22;97757.56;233484;1217;138869;-57